createdAt,value
2023-01-23T00:01:31.161Z,17.45
2023-01-23T00:03:59.185Z,16.98
2023-01-23T00:06:28.523Z,15.85
2023-01-23T00:08:56.887Z,13.02
2023-01-23T00:11:26.938Z,13.30
2023-01-23T00:13:54.577Z,12.27
2023-01-23T00:16:23.625Z,18.55
2023-01-23T00:18:52.581Z,14.65
2023-01-23T00:21:22.949Z,14.93
2023-01-23T00:23:53.092Z,14.10
2023-01-23T00:26:26.083Z,13.35
2023-01-23T00:28:54.378Z,14.43
2023-01-23T00:31:27.083Z,13.07
2023-01-23T00:33:57.894Z,14.55
2023-01-23T00:36:28.037Z,13.65
2023-01-23T00:38:56.248Z,14.25
2023-01-23T00:41:23.865Z,13.05
2023-01-23T00:43:52.291Z,13.25
2023-01-23T00:46:23.074Z,14.25
2023-01-23T00:48:51.994Z,12.23
2023-01-23T00:51:19.838Z,12.02
2023-01-23T00:53:47.368Z,14.95
2023-01-23T00:56:14.492Z,20.25
2023-01-23T00:58:44.098Z,13.77
2023-01-23T01:01:13.831Z,14.50
2023-01-23T01:03:41.586Z,13.30
2023-01-23T01:06:10.795Z,14.35
2023-01-23T01:08:38.437Z,15.85
2023-01-23T01:11:05.942Z,14.55
2023-01-23T01:13:33.675Z,15.68
2023-01-23T01:16:02.250Z,12.20
2023-01-23T01:18:30.291Z,15.27
2023-01-23T01:20:57.916Z,14.20
2023-01-23T01:23:25.794Z,12.77
2023-01-23T01:25:54.514Z,14.45
2023-01-23T01:28:22.007Z,14.90
2023-01-23T01:30:49.924Z,13.48
2023-01-23T01:33:17.335Z,17.23
2023-01-23T01:35:44.498Z,14.65
2023-01-23T01:38:11.868Z,14.60
2023-01-23T01:40:38.981Z,10.40
2023-01-23T01:43:17.268Z,14.48
2023-01-23T01:46:17.634Z,13.55
2023-01-23T01:48:53.209Z,15.27
2023-01-23T01:51:28.914Z,13.35
2023-01-23T01:54:10.908Z,12.43
2023-01-23T01:56:46.194Z,10.50
2023-01-23T01:59:14.906Z,11.48
2023-01-23T02:01:45.993Z,11.68
2023-01-23T02:04:13.892Z,12.55
2023-01-23T02:06:41.169Z,18.17
2023-01-23T02:09:23.016Z,10.00
2023-01-23T02:11:50.657Z,13.35
2023-01-23T02:14:20.944Z,23.42
2023-01-23T02:16:52.063Z,20.25
2023-01-23T02:19:38.860Z,11.52
2023-01-23T02:22:38.415Z,12.45
2023-01-23T02:25:09.125Z,11.82
2023-01-23T02:27:36.134Z,10.80
2023-01-23T02:30:05.833Z,11.85
2023-01-23T02:32:33.210Z,11.18
2023-01-23T02:35:08.494Z,10.55
2023-01-23T02:37:38.002Z,14.05
2023-01-23T02:40:07.347Z,10.13
2023-01-23T02:42:40.764Z,15.57
2023-01-23T02:45:09.324Z,8.80
2023-01-23T02:47:36.741Z,9.02
2023-01-23T02:50:04.576Z,8.73
2023-01-23T02:52:34.442Z,11.77
2023-01-23T02:55:02.024Z,9.38
2023-01-23T02:57:29.565Z,12.05
2023-01-23T03:00:15.701Z,11.23
2023-01-23T03:02:52.162Z,10.23
2023-01-23T03:05:19.657Z,10.57
2023-01-23T03:07:46.769Z,17.38
2023-01-23T03:10:14.176Z,13.80
2023-01-23T03:12:45.259Z,9.90
2023-01-23T03:15:14.648Z,8.35
2023-01-23T03:17:41.717Z,9.65
2023-01-23T03:20:09.955Z,10.15
2023-01-23T03:22:37.010Z,11.13
2023-01-23T03:25:05.992Z,8.80
2023-01-23T03:27:35.021Z,8.75
2023-01-23T03:30:15.782Z,12.10
2023-01-23T03:32:44.675Z,13.50
2023-01-23T03:35:23.175Z,13.50
2023-01-23T03:37:54.621Z,10.85
2023-01-23T03:40:43.968Z,9.27
2023-01-23T03:43:14.790Z,11.85
2023-01-23T03:45:47.917Z,17.88
2023-01-23T03:48:15.112Z,18.80
2023-01-23T03:50:44.248Z,13.02
2023-01-23T03:53:11.416Z,10.57
2023-01-23T03:55:39.176Z,12.85
2023-01-23T03:58:06.260Z,14.43
2023-01-23T04:00:34.818Z,17.98
2023-01-23T04:03:06.393Z,11.25
2023-01-23T04:05:34.483Z,10.10
2023-01-23T04:08:02.105Z,10.20
2023-01-23T04:10:29.903Z,10.15
2023-01-23T04:13:04.024Z,9.85
2023-01-23T04:15:34.950Z,8.68
2023-01-23T04:18:05.257Z,8.57
2023-01-23T04:20:33.250Z,10.50
2023-01-23T04:23:00.315Z,16.65
2023-01-23T04:25:29.308Z,17.25
2023-01-23T04:27:56.660Z,12.15
2023-01-23T04:30:24.163Z,8.93
2023-01-23T04:32:51.795Z,8.55
2023-01-23T04:35:20.431Z,13.15
2023-01-23T04:37:48.064Z,8.85
2023-01-23T04:40:18.589Z,21.98
2023-01-23T04:42:58.816Z,9.70
2023-01-23T04:45:33.558Z,14.30
2023-01-23T04:48:36.140Z,9.80
2023-01-23T04:51:03.862Z,9.48
2023-01-23T04:53:31.168Z,8.90
2023-01-23T04:56:02.557Z,11.18
2023-01-23T04:58:30.639Z,9.40
2023-01-23T05:01:06.565Z,9.27
2023-01-23T05:03:35.576Z,11.38
2023-01-23T05:06:02.967Z,13.30
2023-01-23T05:08:30.335Z,49.30
2023-01-23T05:11:10.868Z,41.20
2023-01-23T05:13:40.801Z,26.02
2023-01-23T05:16:10.706Z,13.75
2023-01-23T05:18:58.173Z,10.57
2023-01-23T05:21:26.429Z,21.13
2023-01-23T05:23:58.579Z,15.40
2023-01-23T05:26:26.084Z,11.65
2023-01-23T05:28:55.236Z,11.55
2023-01-23T05:31:22.718Z,13.15
2023-01-23T05:34:09.811Z,8.40
2023-01-23T05:36:40.160Z,12.85
2023-01-23T05:39:07.837Z,13.38
2023-01-23T05:41:35.334Z,12.38
2023-01-23T05:44:34.718Z,17.50
2023-01-23T05:47:06.740Z,15.45
2023-01-23T05:49:36.967Z,14.00
2023-01-23T05:52:04.604Z,12.82
2023-01-23T05:54:32.782Z,12.43
2023-01-23T05:57:00.392Z,15.70
2023-01-23T05:59:46.179Z,21.60
2023-01-23T06:05:18.807Z,12.02
2023-01-23T06:08:05.327Z,12.77
2023-01-23T06:10:32.466Z,15.75
2023-01-23T06:12:59.819Z,17.23
2023-01-23T06:15:28.825Z,16.60
2023-01-23T06:18:00.455Z,17.52
2023-01-23T06:20:27.708Z,19.80
2023-01-23T06:22:55.349Z,13.40
2023-01-23T06:25:25.285Z,17.52
2023-01-23T06:27:55.409Z,14.80
2023-01-23T06:30:25.243Z,29.30
2023-01-23T06:32:52.905Z,17.95
2023-01-23T06:35:26.273Z,13.30
2023-01-23T06:37:54.850Z,10.70
2023-01-23T06:40:23.444Z,10.35
2023-01-23T06:43:21.877Z,12.88
2023-01-23T06:45:50.254Z,17.25
2023-01-23T06:48:19.765Z,12.30
2023-01-23T06:50:49.492Z,19.50
2023-01-23T06:53:18.258Z,13.40
2023-01-23T06:55:47.093Z,21.40
2023-01-23T06:58:15.885Z,14.52
2023-01-23T07:00:44.701Z,20.05
2023-01-23T07:03:27.033Z,15.48
2023-01-23T07:05:54.360Z,18.40
2023-01-23T07:08:22.130Z,13.80
2023-01-23T07:10:50.881Z,13.48
2023-01-23T07:13:18.243Z,11.85
2023-01-23T07:15:46.838Z,14.00
2023-01-23T07:18:14.243Z,11.60
2023-01-23T07:20:44.716Z,11.30
2023-01-23T07:23:12.247Z,14.48
2023-01-23T07:25:39.979Z,16.70
2023-01-23T07:28:07.497Z,13.38
2023-01-23T07:30:34.672Z,11.82
2023-01-23T07:33:02.533Z,11.50
2023-01-23T07:35:29.702Z,17.83
2023-01-23T07:37:57.757Z,14.80
2023-01-23T07:40:25.504Z,14.27
2023-01-23T07:42:53.013Z,13.20
2023-01-23T07:45:20.132Z,12.55
2023-01-23T07:47:53.471Z,18.48
2023-01-23T07:50:20.964Z,16.40
2023-01-23T07:52:48.476Z,12.45
2023-01-23T07:55:15.514Z,11.45
2023-01-23T07:57:42.800Z,21.23
2023-01-23T08:00:10.967Z,17.65
2023-01-23T08:02:41.080Z,14.55
2023-01-23T08:05:08.765Z,12.77
2023-01-23T08:07:36.202Z,12.10
2023-01-23T08:10:06.347Z,17.23
2023-01-23T08:12:34.630Z,14.75
2023-01-23T08:15:01.946Z,10.52
2023-01-23T08:17:29.329Z,10.35
2023-01-23T08:19:56.478Z,10.43
2023-01-23T08:22:23.807Z,10.60
2023-01-23T08:24:51.064Z,15.05
2023-01-23T08:27:19.736Z,15.38
2023-01-23T08:29:47.055Z,12.85
2023-01-23T08:32:14.798Z,13.77
2023-01-23T08:34:42.253Z,13.02
2023-01-23T08:37:10.106Z,11.80
2023-01-23T08:39:37.619Z,10.95
2023-01-23T08:42:05.241Z,12.98
2023-01-23T08:44:34.262Z,22.45
2023-01-23T08:47:03.405Z,18.65
2023-01-23T08:49:31.091Z,17.67
2023-01-23T08:52:00.212Z,16.42
2023-01-23T08:54:27.518Z,28.88
2023-01-23T08:56:54.908Z,16.60
2023-01-23T08:59:22.329Z,28.25
2023-01-23T09:01:49.918Z,25.85
2023-01-23T09:04:19.082Z,24.70
2023-01-23T09:06:47.134Z,25.73
2023-01-23T09:09:14.248Z,26.08
2023-01-23T09:11:41.776Z,15.88
2023-01-23T09:14:09.223Z,12.02
2023-01-23T09:16:37.110Z,16.90
2023-01-23T09:19:04.616Z,20.52
2023-01-23T09:21:32.293Z,17.55
2023-01-23T09:24:27.328Z,16.45
2023-01-23T09:26:58.184Z,34.45
2023-01-23T09:29:25.114Z,14.23
2023-01-23T09:31:52.567Z,36.58
2023-01-23T09:34:21.357Z,17.85
2023-01-23T09:36:49.065Z,18.60
2023-01-23T09:39:17.050Z,23.65
2023-01-23T09:41:46.232Z,28.70
2023-01-23T09:44:35.312Z,14.93
2023-01-23T09:47:21.011Z,12.70
2023-01-23T09:50:03.252Z,15.13
2023-01-23T09:52:46.151Z,14.23
2023-01-23T09:55:44.227Z,18.35
2023-01-23T09:58:50.003Z,10.35
2023-01-23T10:03:44.897Z,13.32
2023-01-23T10:06:25.286Z,9.48
2023-01-23T10:09:13.468Z,10.18
2023-01-23T10:12:12.690Z,12.73
2023-01-23T10:15:03.829Z,9.20
2023-01-23T10:17:47.189Z,12.90
2023-01-23T10:20:33.809Z,20.73
2023-01-23T10:23:25.966Z,17.17
2023-01-23T10:25:53.697Z,17.73
2023-01-23T10:28:38.032Z,13.98
2023-01-23T10:31:38.539Z,17.52
2023-01-23T10:34:28.251Z,11.98
2023-01-23T10:37:15.516Z,12.70
2023-01-23T10:40:00.045Z,14.63
2023-01-23T10:42:30.952Z,13.25
2023-01-23T10:45:00.848Z,12.48
2023-01-23T10:47:43.220Z,9.70
2023-01-23T10:50:11.385Z,14.88
2023-01-23T10:52:46.075Z,11.98
2023-01-23T10:57:49.811Z,13.27
2023-01-23T11:00:17.523Z,9.90
2023-01-23T11:02:45.280Z,10.95
2023-01-23T11:05:50.628Z,11.77
2023-01-23T11:08:28.758Z,26.88
2023-01-23T11:11:16.128Z,14.30
2023-01-23T11:13:45.605Z,15.10
2023-01-23T11:16:19.210Z,8.77
2023-01-23T11:19:11.566Z,22.25
2023-01-23T11:21:50.504Z,40.90
2023-01-23T11:24:38.495Z,40.22
2023-01-23T11:27:30.334Z,22.23
2023-01-23T11:30:33.328Z,15.23
2023-01-23T11:33:23.550Z,19.63
2023-01-23T11:36:04.551Z,19.73
2023-01-23T11:38:52.463Z,14.52
2023-01-23T11:41:32.632Z,15.43
2023-01-23T11:44:07.332Z,27.38
2023-01-23T11:46:58.244Z,17.73
2023-01-23T11:50:02.067Z,22.90
2023-01-23T11:52:36.518Z,17.42
2023-01-23T11:55:24.982Z,19.02
2023-01-23T11:58:21.289Z,12.38
2023-01-23T12:01:21.043Z,12.02
2023-01-23T12:04:04.601Z,11.23
2023-01-23T12:06:42.867Z,19.77
2023-01-23T12:09:12.357Z,14.82
2023-01-23T12:11:50.347Z,21.15
2023-01-23T12:14:24.125Z,17.02
2023-01-23T12:17:00.571Z,15.73
2023-01-23T12:19:45.593Z,14.73
2023-01-23T12:24:59.965Z,9.67
2023-01-23T12:27:40.022Z,10.10
2023-01-23T12:30:27.957Z,9.75
2023-01-23T12:33:23.356Z,10.18
2023-01-23T12:36:28.802Z,6.72
2023-01-23T12:39:14.287Z,6.53
2023-01-23T12:41:52.914Z,9.95
2023-01-23T12:44:30.734Z,9.88
2023-01-23T12:47:12.863Z,15.70
2023-01-23T12:49:54.012Z,10.23
2023-01-23T12:52:32.690Z,10.75
2023-01-23T12:55:23.033Z,16.40
2023-01-23T12:57:59.816Z,19.65
2023-01-23T13:00:46.108Z,17.25
2023-01-23T13:03:47.245Z,17.15
2023-01-23T13:06:55.678Z,13.63
2023-01-23T13:09:31.711Z,20.23
2023-01-23T13:12:24.433Z,36.35
2023-01-23T13:15:14.490Z,16.42
2023-01-23T13:17:49.312Z,16.80
2023-01-23T13:20:47.043Z,32.22
2023-01-23T13:23:29.645Z,24.33
2023-01-23T13:26:15.602Z,30.58
2023-01-23T13:28:48.658Z,33.17
2023-01-23T13:31:34.361Z,21.55
2023-01-23T13:34:14.840Z,21.30
2023-01-23T13:36:46.906Z,21.80
2023-01-23T13:39:17.015Z,20.63
2023-01-23T13:42:18.527Z,21.67
2023-01-23T13:45:16.863Z,28.08
2023-01-23T14:22:56.565Z,61.45
2023-01-23T14:25:23.860Z,26.00
2023-01-23T14:28:03.760Z,23.40
2023-01-23T14:30:31.717Z,24.70
2023-01-23T14:32:59.529Z,28.15
2023-01-23T14:35:30.361Z,45.45
2023-01-23T14:38:05.123Z,32.25
2023-01-23T14:40:43.456Z,27.00
2023-01-23T14:43:23.484Z,77.50
2023-01-23T14:46:00.249Z,34.53
2023-01-23T14:48:28.611Z,24.15
2023-01-23T14:51:08.925Z,50.88
2023-01-23T14:53:40.568Z,33.90
2023-01-23T14:56:11.032Z,20.77
2023-01-23T14:58:39.052Z,26.98
2023-01-23T15:01:06.183Z,24.20
2023-01-23T15:03:44.186Z,20.35
2023-01-23T15:06:15.965Z,18.13
2023-01-23T15:08:46.391Z,20.63
2023-01-23T15:11:14.168Z,22.63
2023-01-23T15:13:43.191Z,17.80
2023-01-23T15:16:38.559Z,15.73
2023-01-23T15:19:20.089Z,16.00
2023-01-23T15:21:47.489Z,21.13
2023-01-23T15:24:14.826Z,20.48
2023-01-23T15:26:43.005Z,16.48
2023-01-23T15:29:10.427Z,18.17
2023-01-23T15:31:40.520Z,32.83
2023-01-23T15:34:30.656Z,93.68
2023-01-23T15:37:11.256Z,15.35
2023-01-23T15:39:49.335Z,15.52
2023-01-23T15:42:19.309Z,14.65
2023-01-23T15:44:47.595Z,15.85
2023-01-23T15:47:15.119Z,13.77
2023-01-23T15:49:42.581Z,14.13
2023-01-23T15:52:23.195Z,13.43
2023-01-23T15:54:53.852Z,11.07
2023-01-23T15:57:21.260Z,11.13
2023-01-23T15:59:48.795Z,15.50
2023-01-23T16:02:30.063Z,16.42
2023-01-23T16:05:00.895Z,26.95
2023-01-23T16:07:35.536Z,17.48
2023-01-23T16:10:24.753Z,13.38
2023-01-23T16:12:54.814Z,19.77
2023-01-23T16:15:25.173Z,14.07
2023-01-23T16:17:52.852Z,49.22
2023-01-23T16:20:27.616Z,17.35
2023-01-23T16:23:14.097Z,45.65
2023-01-23T16:25:45.062Z,22.98
2023-01-23T16:28:20.821Z,14.88
2023-01-23T16:30:48.952Z,21.98
2023-01-23T16:33:16.624Z,19.65
2023-01-23T16:35:46.399Z,19.70
2023-01-23T16:38:28.194Z,18.88
2023-01-23T16:40:59.482Z,47.55
2023-01-23T16:43:26.902Z,23.40
2023-01-23T16:45:56.499Z,19.55
2023-01-23T16:48:27.743Z,21.20
2023-01-23T16:51:03.373Z,31.13
2023-01-23T16:53:34.713Z,28.73
2023-01-23T16:56:04.306Z,24.70
2023-01-23T16:58:39.566Z,45.08
2023-01-23T17:01:21.787Z,37.25
2023-01-23T17:03:56.405Z,25.63
2023-01-23T17:06:26.685Z,29.88
2023-01-23T17:08:55.674Z,30.17
2023-01-23T17:11:28.287Z,34.13
2023-01-23T17:14:01.827Z,29.98
2023-01-23T17:16:30.251Z,49.03
2023-01-23T17:19:00.967Z,23.73
2023-01-23T17:21:34.756Z,44.28
2023-01-23T17:24:02.395Z,22.83
2023-01-23T17:26:29.767Z,35.08
2023-01-23T17:28:59.222Z,31.30
2023-01-23T17:31:29.039Z,15.55
2023-01-23T17:33:56.792Z,44.75
2023-01-23T17:36:44.476Z,45.47
2023-01-23T17:39:15.972Z,38.78
2023-01-23T17:41:43.779Z,44.72
2023-01-23T17:44:10.924Z,36.22
2023-01-23T17:46:39.648Z,43.15
2023-01-23T17:49:29.251Z,25.63
2023-01-23T17:52:01.389Z,41.10
2023-01-23T17:54:29.071Z,35.78
2023-01-23T17:56:56.402Z,21.88
2023-01-23T17:59:23.445Z,49.60
2023-01-23T18:01:51.102Z,41.70
2023-01-23T18:04:26.678Z,30.25
2023-01-23T18:06:54.066Z,49.72
2023-01-23T18:09:21.621Z,27.70
2023-01-23T18:11:54.418Z,18.27
2023-01-23T18:14:57.713Z,29.30
2023-01-23T18:17:37.533Z,71.05
2023-01-23T18:20:20.325Z,143.02
2023-01-23T18:22:50.739Z,158.90
2023-01-23T18:25:19.532Z,233.80
2023-01-23T18:28:00.578Z,302.83
2023-01-23T18:31:03.705Z,101.90
2023-01-23T18:33:49.618Z,20.33
2023-01-23T18:36:30.943Z,42.38
2023-01-23T18:39:32.071Z,45.33
2023-01-23T18:42:05.106Z,22.00
2023-01-23T18:44:34.824Z,27.02
2023-01-23T18:47:05.695Z,26.13
2023-01-23T18:49:33.648Z,20.55
2023-01-23T18:52:13.676Z,22.35
2023-01-23T18:54:51.905Z,17.13
2023-01-23T18:57:50.380Z,31.35
2023-01-23T19:00:24.114Z,29.05
2023-01-23T19:02:55.324Z,30.17
2023-01-23T19:05:32.907Z,17.13
2023-01-23T19:08:02.159Z,17.83
2023-01-23T19:10:46.715Z,21.40
2023-01-23T19:13:40.575Z,20.55
2023-01-23T19:16:09.132Z,43.67
2023-01-23T19:18:45.724Z,19.13
2023-01-23T19:21:26.613Z,18.85
2023-01-23T19:23:54.163Z,23.60
2023-01-23T19:26:23.196Z,20.00
2023-01-23T19:28:50.782Z,15.52
2023-01-23T19:31:30.100Z,25.85
2023-01-23T19:33:58.845Z,24.58
2023-01-23T19:36:27.344Z,17.00
2023-01-23T19:39:01.685Z,20.58
2023-01-23T19:41:34.464Z,22.85
2023-01-23T19:44:03.020Z,23.15
2023-01-23T19:46:33.612Z,30.05
2023-01-23T19:49:03.683Z,17.08
2023-01-23T19:51:32.724Z,21.73
2023-01-23T19:54:00.788Z,18.10
2023-01-23T19:56:30.279Z,23.15
2023-01-23T19:58:57.430Z,17.67
2023-01-23T20:01:47.960Z,64.13
2023-01-23T20:04:18.193Z,33.65
2023-01-23T20:07:16.324Z,19.38
2023-01-23T20:09:44.251Z,31.23
2023-01-23T20:12:13.249Z,27.38
2023-01-23T20:14:40.284Z,32.55
2023-01-23T20:17:07.752Z,23.52
2023-01-23T20:19:34.871Z,21.83
2023-01-23T20:22:02.351Z,25.40
2023-01-23T20:24:29.415Z,21.83
2023-01-23T20:26:56.794Z,36.67
2023-01-23T20:29:23.952Z,32.75
2023-01-23T20:31:54.486Z,36.38
2023-01-23T20:34:22.041Z,26.52
2023-01-23T20:36:49.354Z,20.02
2023-01-23T20:39:16.395Z,20.10
2023-01-23T20:41:43.797Z,28.60
2023-01-23T20:44:12.621Z,32.90
2023-01-23T20:46:39.894Z,63.33
2023-01-23T20:49:07.066Z,52.45
2023-01-23T20:51:34.558Z,45.13
2023-01-23T20:54:01.668Z,55.95
2023-01-23T20:56:29.149Z,112.93
2023-01-23T20:59:15.640Z,148.25
2023-01-23T21:02:02.068Z,235.95
2023-01-23T21:04:31.846Z,114.93
2023-01-23T21:07:00.206Z,155.20
2023-01-23T21:09:27.732Z,162.90
2023-01-23T21:11:55.512Z,35.78
2023-01-23T21:14:23.404Z,65.38
2023-01-23T21:16:50.709Z,37.10
2023-01-23T21:19:17.792Z,36.35
2023-01-23T21:21:45.359Z,26.33
2023-01-23T21:24:12.987Z,43.03
2023-01-23T21:26:40.991Z,62.05
2023-01-23T21:29:08.673Z,77.55
2023-01-23T21:31:41.596Z,33.38
2023-01-23T21:34:12.233Z,26.40
2023-01-23T21:36:41.772Z,36.67
2023-01-23T21:39:11.721Z,35.13
2023-01-23T21:41:39.170Z,37.50
2023-01-23T21:44:06.595Z,38.10
2023-01-23T21:46:38.073Z,22.42
2023-01-23T21:49:05.169Z,31.92
2023-01-23T21:51:32.686Z,25.48
2023-01-23T21:53:59.789Z,63.40
2023-01-23T21:56:27.512Z,40.40
2023-01-23T21:58:55.475Z,49.65
2023-01-23T22:01:35.694Z,36.95
2023-01-23T22:04:09.216Z,55.35
2023-01-23T22:06:39.069Z,45.58
2023-01-23T22:09:07.190Z,48.30
2023-01-23T22:11:34.864Z,47.97
2023-01-23T22:14:02.158Z,31.80
2023-01-23T22:16:46.916Z,27.45
2023-01-23T22:19:16.101Z,37.08
2023-01-23T22:21:44.319Z,32.72
2023-01-23T22:24:11.390Z,23.35
2023-01-23T22:26:38.787Z,85.40
2023-01-23T22:29:05.777Z,36.63
2023-01-23T22:31:33.163Z,25.40
2023-01-23T22:34:00.223Z,26.65
2023-01-23T22:36:27.575Z,108.22
2023-01-23T22:38:55.600Z,30.23
2023-01-23T22:41:23.887Z,39.53
2023-01-23T22:43:55.405Z,33.00
2023-01-23T22:46:25.236Z,55.90
2023-01-23T22:48:52.324Z,25.63
2023-01-23T22:51:25.441Z,23.98
2023-01-23T22:53:54.075Z,26.90
2023-01-23T22:56:21.755Z,22.25
2023-01-23T22:58:50.163Z,20.58
2023-01-23T23:01:18.710Z,20.65
2023-01-23T23:03:46.087Z,22.10
2023-01-23T23:06:15.783Z,34.33
2023-01-23T23:08:47.125Z,24.23
2023-01-23T23:11:17.987Z,22.95
2023-01-23T23:13:45.838Z,22.48
2023-01-23T23:16:20.866Z,38.78
2023-01-23T23:18:50.091Z,39.10
2023-01-23T23:21:20.311Z,33.72
2023-01-23T23:23:47.819Z,21.80
2023-01-23T23:26:15.982Z,21.55
2023-01-23T23:28:43.246Z,21.15
2023-01-23T23:31:11.359Z,20.33
2023-01-23T23:33:38.729Z,21.48
2023-01-23T23:36:06.861Z,21.02
2023-01-23T23:38:35.003Z,22.70
2023-01-23T23:41:07.014Z,22.20
2023-01-23T23:43:34.599Z,22.90
2023-01-23T23:46:05.678Z,20.30
2023-01-23T23:48:34.846Z,28.20
2023-01-23T23:51:07.876Z,26.75
2023-01-23T23:53:36.283Z,22.98
2023-01-23T23:56:04.722Z,21.48
2023-01-23T23:58:32.635Z,20.73
